This is the latest recevied weather packets stored in our database for station/object 9W2CEW-1. If no packets are shown the sender has not sent any weather packets the latest 10 day(s).
| Time | Temp. | Humidity | Pressure | Rain* | Wind** | Luminosity | Snow |
|---|---|---|---|---|---|---|---|
| 1787672218 | 40° C | 40% | 1004 hPa | - | - | - | - |
| 1787671402 | 38.89° C | 41% | 1006.8 hPa | - | - | - | - |
| 1787670503 | 38.89° C | 40% | 1006.8 hPa | - | - | - | - |
| 1787669602 | 38.89° C | 40% | 1006.4 hPa | - | - | - | - |
| 1787668702 | 38.89° C | 40% | 1006.4 hPa | - | - | - | - |
| 1787667803 | 38.89° C | 40% | 1006.3 hPa | - | - | - | - |
| 1787666904 | 37.78° C | 42% | 1006.3 hPa | - | - | - | - |
| 1787666004 | 37.78° C | 42% | 1006.2 hPa | - | - | - | - |
| 1787665104 | 38.33° C | 41% | 1006.1 hPa | - | - | - | - |
| 1787664204 | 38.89° C | 41% | 1005.6 hPa | - | - | - | - |
| 1787663303 | 37.78° C | 43% | 1005.5 hPa | - | - | - | - |
| 1787662403 | 36.11° C | 45% | 1005.3 hPa | - | - | - | - |
| 1787661503 | 37.22° C | 44% | 1005 hPa | - | - | - | - |
| 1787660603 | 37.22° C | 44% | 1004.9 hPa | - | - | - | - |
| 1787659703 | 37.22° C | 44% | 1004.6 hPa | - | - | - | - |
| 1787658803 | 37.78° C | 42% | 1004.4 hPa | - | - | - | - |
| 1787657903 | 36.67° C | 45% | 1004.3 hPa | - | - | - | - |
| 1787657003 | 37.22° C | 43% | 1004.3 hPa | - | - | - | - |
| 1787656103 | 36.67° C | 45% | 1004.3 hPa | - | - | - | - |
| 1787655203 | 37.78° C | 42% | 1003.6 hPa | - | - | - | - |
| 1787654303 | 37.78° C | 42% | 1003.9 hPa | - | - | - | - |
| 1787653402 | 38.33° C | 42% | 1003.6 hPa | - | - | - | - |
| 1787652502 | 39.44° C | 40% | 1003.2 hPa | - | - | - | - |
| 1787651602 | 41.67° C | 35% | 1003.1 hPa | - | - | - | - |
| 1787650702 | 41.11° C | 37% | 1003.3 hPa | - | - | - | - |
* Rain since midnight (hover to see other rain measurements)
** Current wind speed in m/s (hover to see current wind gust speed)